PWSweather.com
Personal Weather Stations
Station Observations
STPETERS
BroadstairsGB

BroadstairsGB

Lat: 51.37, Lon: 1.423

Elevation: 141

Station Type: WH1081

Latest ConditionsUpdated 11:45:01 PM GMT Sunday, Nov 18, 2018
Currently Today's Max Today's Min Today's Average
Temperature 46.6°F8.1°C 50.5°F10.3°C 46.0°F7.8°C 48.3°F9.1°C
Dew Point 23.6°F-4.7°C 27.1°F-2.7°C 23.1°F-4.9°C 25.1°F-3.8°C
Winds 13.3 mph E21.4 kmh E 16.3 mph -26.2 kmh - - 11.0 mph 17.7 kmh
Wind Gusts 16.8 mph27.0 kmh 22.8 mph36.7 kmh - -
Humidity 40% 40% 40% 40%
Pressure 30.25 in1024.4 mb 30.37 in1028.4 mb 30.25 in1024.4 mb -
Hour Temp Dew Point Humidity Winds Wind Gusts Pressure Precip Precip Rate Daily Precip Total
11:45 PM 46.6°F8.1°C 23.6°F-4.7°C 40% 13.3 mph E21.4 kmh E 16.8 mph27.0 kmh 30.25 in1024.4 mb 0.00 in0.0 mm 0.00 in0.0 mm 0.00 in0.0 mm
11:30 PM 46.6°F8.1°C 23.6°F-4.7°C 40% 13.1 mph ENE21.1 kmh ENE 20.6 mph33.2 kmh 30.25 in1024.4 mb 0.00 in0.0 mm 0.00 in0.0 mm 0.00 in0.0 mm
11:15 PM 46.9°F8.3°C 23.9°F-4.5°C 40% 15.5 mph ENE24.9 kmh ENE 19.7 mph31.7 kmh 30.25 in1024.4 mb 0.00 in0.0 mm 0.00 in0.0 mm 0.00 in0.0 mm
11:00 PM 47.3°F8.5°C 24.2°F-4.3°C 40% 13.3 mph ENE21.4 kmh ENE 22.8 mph36.7 kmh 30.26 in1024.7 mb 0.00 in0.0 mm 0.00 in0.0 mm 0.00 in0.0 mm
10:45 PM 47.5°F8.6°C 24.4°F-4.2°C 40% 15.3 mph NE24.6 kmh NE 19.0 mph30.6 kmh 30.25 in1024.4 mb 0.00 in0.0 mm 0.00 in0.0 mm 0.00 in0.0 mm
10:30 PM 47.8°F8.8°C 24.7°F-4.1°C 40% 12.6 mph NE20.3 kmh NE 15.9 mph25.6 kmh 30.25 in1024.4 mb 0.00 in0.0 mm 0.00 in0.0 mm 0.00 in0.0 mm
10:15 PM 48.0°F8.9°C 24.9°F-3.9°C 40% 16.3 mph NE26.2 kmh NE 21.3 mph34.3 kmh 30.26 in1024.7 mb 0.00 in0.0 mm 0.00 in0.0 mm 0.00 in0.0 mm
10:00 PM 48.2°F9.0°C 25.0°F-3.9°C 40% 16.2 mph E26.1 kmh E 19.0 mph30.6 kmh 30.25 in1024.4 mb 0.00 in0.0 mm 0.00 in0.0 mm 0.00 in0.0 mm
09:45 PM 48.7°F9.3°C 25.5°F-3.6°C 40% 14.2 mph NE22.9 kmh NE 17.4 mph28.0 kmh 30.25 in1024.4 mb 0.00 in0.0 mm 0.00 in0.0 mm 0.00 in0.0 mm
09:30 PM 48.9°F9.4°C 25.7°F-3.5°C 40% 15.2 mph ENE24.5 kmh ENE 19.7 mph31.7 kmh 30.25 in1024.4 mb 0.00 in0.0 mm 0.00 in0.0 mm 0.00 in0.0 mm
09:15 PM 49.3°F9.6°C 26.0°F-3.3°C 40% 15.8 mph NE25.4 kmh NE 21.3 mph34.3 kmh 30.26 in1024.7 mb 0.00 in0.0 mm 0.00 in0.0 mm 0.00 in0.0 mm
09:00 PM 49.3°F9.6°C 26.0°F-3.3°C 40% 14.9 mph NE24.0 kmh NE 17.4 mph28.0 kmh 30.25 in1024.4 mb 0.00 in0.0 mm 0.00 in0.0 mm 0.00 in0.0 mm
08:45 PM 49.1°F9.5°C 25.8°F-3.4°C 40% 12.8 mph ENE20.6 kmh ENE 16.8 mph27.0 kmh 30.25 in1024.4 mb 0.00 in0.0 mm 0.00 in0.0 mm 0.00 in0.0 mm
08:30 PM 49.6°F9.8°C 26.3°F-3.2°C 40% 12.6 mph NE20.3 kmh NE 19.7 mph31.7 kmh 30.26 in1024.7 mb 0.00 in0.0 mm 0.00 in0.0 mm 0.00 in0.0 mm
08:15 PM 49.3°F9.6°C 26.0°F-3.3°C 40% 14.5 mph NE23.3 kmh NE 19.0 mph30.6 kmh 30.26 in1024.7 mb 0.00 in0.0 mm 0.00 in0.0 mm 0.00 in0.0 mm
08:00 PM 49.5°F9.7°C 26.2°F-3.2°C 40% 14.0 mph NE22.5 kmh NE 22.8 mph36.7 kmh 30.26 in1024.7 mb 0.00 in0.0 mm 0.00 in0.0 mm 0.00 in0.0 mm
07:45 PM 49.3°F9.6°C 26.0°F-3.3°C 40% 14.0 mph NE22.5 kmh NE 20.6 mph33.2 kmh 30.26 in1024.7 mb 0.00 in0.0 mm 0.00 in0.0 mm 0.00 in0.0 mm
07:30 PM 49.3°F9.6°C 26.0°F-3.3°C 40% 13.7 mph NE22.0 kmh NE 18.3 mph29.5 kmh 30.26 in1024.7 mb 0.00 in0.0 mm 0.00 in0.0 mm 0.00 in0.0 mm
07:15 PM 49.3°F9.6°C 26.0°F-3.3°C 40% 12.9 mph E20.8 kmh E 18.3 mph29.5 kmh 30.26 in1024.7 mb 0.00 in0.0 mm 0.00 in0.0 mm 0.00 in0.0 mm
07:00 PM 49.3°F9.6°C 26.0°F-3.3°C 40% 10.9 mph ENE17.5 kmh ENE 14.5 mph23.3 kmh 30.26 in1024.7 mb 0.00 in0.0 mm 0.00 in0.0 mm 0.00 in0.0 mm
06:45 PM 49.6°F9.8°C 26.3°F-3.2°C 40% 11.5 mph E18.5 kmh E 15.9 mph25.6 kmh 30.27 in1025.1 mb 0.00 in0.0 mm 0.00 in0.0 mm 0.00 in0.0 mm
06:30 PM 49.3°F9.6°C 26.0°F-3.3°C 40% 11.4 mph E18.3 kmh E 16.8 mph27.0 kmh 30.27 in1025.1 mb 0.00 in0.0 mm 0.00 in0.0 mm 0.00 in0.0 mm
06:15 PM 49.3°F9.6°C 26.0°F-3.3°C 40% 12.0 mph ENE19.3 kmh ENE 16.8 mph27.0 kmh 30.28 in1025.4 mb 0.00 in0.0 mm 0.00 in0.0 mm 0.00 in0.0 mm
06:00 PM 49.1°F9.5°C 25.8°F-3.4°C 40% 12.2 mph ENE19.6 kmh ENE 18.3 mph29.5 kmh 30.28 in1025.4 mb 0.00 in0.0 mm 0.00 in0.0 mm 0.00 in0.0 mm
05:45 PM 49.1°F9.5°C 25.8°F-3.4°C 40% 12.0 mph NE19.3 kmh NE 16.8 mph27.0 kmh 30.28 in1025.4 mb 0.00 in0.0 mm 0.00 in0.0 mm 0.00 in0.0 mm
05:30 PM 49.1°F9.5°C 25.8°F-3.4°C 40% 12.6 mph ENE20.3 kmh ENE 14.5 mph23.3 kmh 30.29 in1025.7 mb 0.00 in0.0 mm 0.00 in0.0 mm 0.00 in0.0 mm
05:15 PM 48.9°F9.4°C 25.7°F-3.5°C 40% 12.4 mph NE20.0 kmh NE 20.6 mph33.2 kmh 30.28 in1025.4 mb 0.00 in0.0 mm 0.00 in0.0 mm 0.00 in0.0 mm
05:00 PM 48.7°F9.3°C 25.5°F-3.6°C 40% 11.4 mph NE18.3 kmh NE 17.4 mph28.0 kmh 30.28 in1025.4 mb 0.00 in0.0 mm 0.00 in0.0 mm 0.00 in0.0 mm
04:45 PM 48.7°F9.3°C 25.5°F-3.6°C 40% 13.7 mph ENE22.0 kmh ENE 14.5 mph23.3 kmh 30.28 in1025.4 mb 0.00 in0.0 mm 0.00 in0.0 mm 0.00 in0.0 mm
04:41 PM 48.7°F9.3°C 25.5°F-3.6°C 40% 13.1 mph NE21.1 kmh NE 14.5 mph23.3 kmh 30.29 in1025.7 mb 0.00 in0.0 mm 0.00 in0.0 mm 0.00 in0.0 mm
04:36 PM 48.7°F9.3°C 25.5°F-3.6°C 40% 12.9 mph NE20.8 kmh NE 14.5 mph23.3 kmh 30.29 in1025.7 mb 0.00 in0.0 mm 0.00 in0.0 mm 0.00 in0.0 mm
04:30 PM 48.9°F9.4°C 25.7°F-3.5°C 40% 11.9 mph NE19.2 kmh NE 14.5 mph23.3 kmh 30.28 in1025.4 mb 0.00 in0.0 mm 0.00 in0.0 mm 0.00 in0.0 mm
04:15 PM 48.9°F9.4°C 25.7°F-3.5°C 40% 10.4 mph NE16.7 kmh NE 14.5 mph23.3 kmh 30.28 in1025.4 mb 0.00 in0.0 mm 0.00 in0.0 mm 0.00 in0.0 mm
04:00 PM 49.3°F9.6°C 26.0°F-3.3°C 40% 11.9 mph ENE19.2 kmh ENE 15.9 mph25.6 kmh 30.29 in1025.7 mb 0.00 in0.0 mm 0.00 in0.0 mm 0.00 in0.0 mm
03:45 PM 49.5°F9.7°C 26.2°F-3.2°C 40% 10.3 mph NE16.6 kmh NE 14.5 mph23.3 kmh 30.29 in1025.7 mb 0.00 in0.0 mm 0.00 in0.0 mm 0.00 in0.0 mm
03:30 PM 49.5°F9.7°C 26.2°F-3.2°C 40% 10.0 mph NE16.1 kmh NE 13.6 mph21.9 kmh 30.29 in1025.7 mb 0.00 in0.0 mm 0.00 in0.0 mm 0.00 in0.0 mm
03:15 PM 49.5°F9.7°C 26.2°F-3.2°C 40% 10.6 mph ENE17.1 kmh ENE 13.6 mph21.9 kmh 30.29 in1025.7 mb 0.00 in0.0 mm 0.00 in0.0 mm 0.00 in0.0 mm
03:00 PM 49.5°F9.7°C 26.2°F-3.2°C 40% 8.2 mph NE13.2 kmh NE 11.4 mph18.3 kmh 30.30 in1026.1 mb 0.00 in0.0 mm 0.00 in0.0 mm 0.00 in0.0 mm
02:45 PM 49.6°F9.8°C 26.3°F-3.2°C 40% 9.9 mph NE15.9 kmh NE 15.2 mph24.5 kmh 30.30 in1026.1 mb 0.00 in0.0 mm 0.00 in0.0 mm 0.00 in0.0 mm
02:30 PM 49.6°F9.8°C 26.3°F-3.2°C 40% 10.5 mph E16.9 kmh E 13.6 mph21.9 kmh 30.30 in1026.1 mb 0.00 in0.0 mm 0.00 in0.0 mm 0.00 in0.0 mm
02:15 PM 50.0°F10.0°C 26.6°F-3.0°C 40% 10.6 mph ENE17.1 kmh ENE 14.5 mph23.3 kmh 30.30 in1026.1 mb 0.00 in0.0 mm 0.00 in0.0 mm 0.00 in0.0 mm
02:00 PM 50.2°F10.1°C 26.8°F-2.9°C 40% 9.8 mph NE15.8 kmh NE 14.5 mph23.3 kmh 30.30 in1026.1 mb 0.00 in0.0 mm 0.00 in0.0 mm 0.00 in0.0 mm
01:45 PM 50.4°F10.2°C 27.0°F-2.8°C 40% 11.6 mph NE18.7 kmh NE 15.2 mph24.5 kmh 30.30 in1026.1 mb 0.00 in0.0 mm 0.00 in0.0 mm 0.00 in0.0 mm
01:30 PM 50.4°F10.2°C 27.0°F-2.8°C 40% 11.1 mph ENE17.9 kmh ENE 20.6 mph33.2 kmh 30.31 in1026.4 mb 0.00 in0.0 mm 0.00 in0.0 mm 0.00 in0.0 mm
01:15 PM 50.4°F10.2°C 27.0°F-2.8°C 40% 10.4 mph ENE16.7 kmh ENE 15.2 mph24.5 kmh 30.31 in1026.4 mb 0.00 in0.0 mm 0.00 in0.0 mm 0.00 in0.0 mm
01:00 PM 50.4°F10.2°C 27.0°F-2.8°C 40% 10.7 mph ENE17.2 kmh ENE 14.5 mph23.3 kmh 30.32 in1026.8 mb 0.00 in0.0 mm 0.00 in0.0 mm 0.00 in0.0 mm
12:45 PM 50.4°F10.2°C 27.0°F-2.8°C 40% 10.3 mph NE16.6 kmh NE 15.9 mph25.6 kmh 30.33 in1027.1 mb 0.00 in0.0 mm 0.00 in0.0 mm 0.00 in0.0 mm
12:30 PM 50.4°F10.2°C 27.0°F-2.8°C 40% 9.1 mph NE14.6 kmh NE 13.6 mph21.9 kmh 30.33 in1027.1 mb 0.00 in0.0 mm 0.00 in0.0 mm 0.00 in0.0 mm
12:15 PM 50.5°F10.3°C 27.1°F-2.7°C 40% 8.0 mph NE12.9 kmh NE 13.0 mph20.9 kmh 30.33 in1027.1 mb 0.00 in0.0 mm 0.00 in0.0 mm 0.00 in0.0 mm
12:00 PM 50.4°F10.2°C 27.0°F-2.8°C 40% 9.1 mph NE14.6 kmh NE 11.4 mph18.3 kmh 30.33 in1027.1 mb 0.00 in0.0 mm 0.00 in0.0 mm 0.00 in0.0 mm
11:45 AM 50.2°F10.1°C 26.8°F-2.9°C 40% 8.0 mph ENE12.9 kmh ENE 13.6 mph21.9 kmh 30.33 in1027.1 mb 0.00 in0.0 mm 0.00 in0.0 mm 0.00 in0.0 mm
11:15 AM 50.0°F10.0°C 26.6°F-3.0°C 40% 9.8 mph ENE15.8 kmh ENE 13.6 mph21.9 kmh 30.34 in1027.4 mb 0.00 in0.0 mm 0.00 in0.0 mm 0.00 in0.0 mm
11:00 AM 49.6°F9.8°C 26.3°F-3.2°C 40% 11.2 mph E18.0 kmh E 16.8 mph27.0 kmh 30.36 in1028.1 mb 0.00 in0.0 mm 0.00 in0.0 mm 0.00 in0.0 mm
10:45 AM 49.5°F9.7°C 26.2°F-3.2°C 40% 11.1 mph E17.9 kmh E 15.2 mph24.5 kmh 30.36 in1028.1 mb 0.00 in0.0 mm 0.00 in0.0 mm 0.00 in0.0 mm
10:30 AM 49.3°F9.6°C 26.0°F-3.3°C 40% 11.2 mph E18.0 kmh E 15.9 mph25.6 kmh 30.36 in1028.1 mb 0.00 in0.0 mm 0.00 in0.0 mm 0.00 in0.0 mm
10:15 AM 48.7°F9.3°C 25.5°F-3.6°C 40% 10.9 mph NE17.5 kmh NE 14.5 mph23.3 kmh 30.37 in1028.4 mb 0.00 in0.0 mm 0.00 in0.0 mm 0.00 in0.0 mm
10:00 AM 48.4°F9.1°C 25.2°F-3.8°C 40% 10.2 mph E16.4 kmh E 14.5 mph23.3 kmh 30.36 in1028.1 mb 0.00 in0.0 mm 0.00 in0.0 mm 0.00 in0.0 mm
09:30 AM 47.5°F8.6°C 24.4°F-4.2°C 40% 9.8 mph NE15.8 kmh NE 13.6 mph21.9 kmh 30.36 in1028.1 mb 0.00 in0.0 mm 0.00 in0.0 mm 0.00 in0.0 mm
09:15 AM 47.1°F8.4°C 24.1°F-4.4°C 40% 10.5 mph E16.9 kmh E 13.6 mph21.9 kmh 30.35 in1027.8 mb 0.00 in0.0 mm 0.00 in0.0 mm 0.00 in0.0 mm
09:00 AM 47.1°F8.4°C 24.1°F-4.4°C 40% 10.4 mph E16.7 kmh E 13.0 mph20.9 kmh 30.36 in1028.1 mb 0.00 in0.0 mm 0.00 in0.0 mm 0.00 in0.0 mm
08:45 AM 47.1°F8.4°C 24.1°F-4.4°C 40% 11.1 mph ENE17.9 kmh ENE 17.4 mph28.0 kmh 30.36 in1028.1 mb 0.00 in0.0 mm 0.00 in0.0 mm 0.00 in0.0 mm
08:30 AM 46.8°F8.2°C 23.7°F-4.6°C 40% 11.6 mph E18.7 kmh E 16.8 mph27.0 kmh 30.36 in1028.1 mb 0.00 in0.0 mm 0.00 in0.0 mm 0.00 in0.0 mm
08:15 AM 46.6°F8.1°C 23.6°F-4.7°C 40% 11.5 mph E18.5 kmh E 14.5 mph23.3 kmh 30.36 in1028.1 mb 0.00 in0.0 mm 0.00 in0.0 mm 0.00 in0.0 mm
08:00 AM 46.4°F8.0°C 23.4°F-4.8°C 40% 11.7 mph E18.8 kmh E 18.3 mph29.5 kmh 30.36 in1028.1 mb 0.00 in0.0 mm 0.00 in0.0 mm 0.00 in0.0 mm
07:45 AM 47.5°F8.6°C 24.4°F-4.2°C 40% 11.0 mph ENE17.7 kmh ENE 14.5 mph23.3 kmh 30.36 in1028.1 mb 0.00 in0.0 mm 0.00 in0.0 mm 0.00 in0.0 mm
07:30 AM 46.2°F7.9°C 23.2°F-4.9°C 40% 10.0 mph E16.1 kmh E 14.5 mph23.3 kmh 30.36 in1028.1 mb 0.00 in0.0 mm 0.00 in0.0 mm 0.00 in0.0 mm
07:15 AM 46.0°F7.8°C 23.1°F-4.9°C 40% 8.9 mph ENE14.3 kmh ENE 12.1 mph19.5 kmh 30.35 in1027.8 mb 0.00 in0.0 mm 0.00 in0.0 mm 0.00 in0.0 mm
07:00 AM 46.0°F7.8°C 23.1°F-4.9°C 40% 9.5 mph E15.3 kmh E 13.0 mph20.9 kmh 30.34 in1027.4 mb 0.00 in0.0 mm 0.00 in0.0 mm 0.00 in0.0 mm
06:45 AM 46.4°F8.0°C 23.4°F-4.8°C 40% 9.5 mph E15.3 kmh E 13.6 mph21.9 kmh 30.34 in1027.4 mb 0.00 in0.0 mm 0.00 in0.0 mm 0.00 in0.0 mm
06:30 AM 46.6°F8.1°C 23.6°F-4.7°C 40% 8.2 mph E13.2 kmh E 11.4 mph18.3 kmh 30.34 in1027.4 mb 0.00 in0.0 mm 0.00 in0.0 mm 0.00 in0.0 mm
06:15 AM 46.6°F8.1°C 23.6°F-4.7°C 40% 8.6 mph SE13.8 kmh SE 12.1 mph19.5 kmh 30.34 in1027.4 mb 0.00 in0.0 mm 0.00 in0.0 mm 0.00 in0.0 mm
06:00 AM 46.4°F8.0°C 23.4°F-4.8°C 40% 8.8 mph E14.2 kmh E 13.0 mph20.9 kmh 30.34 in1027.4 mb 0.00 in0.0 mm 0.00 in0.0 mm 0.00 in0.0 mm
05:45 AM 46.2°F7.9°C 23.2°F-4.9°C 40% 8.4 mph ENE13.5 kmh ENE 11.4 mph18.3 kmh 30.34 in1027.4 mb 0.00 in0.0 mm 0.00 in0.0 mm 0.00 in0.0 mm
05:30 AM 46.2°F7.9°C 23.2°F-4.9°C 40% 7.6 mph ENE12.2 kmh ENE 9.8 mph15.8 kmh 30.34 in1027.4 mb 0.00 in0.0 mm 0.00 in0.0 mm 0.00 in0.0 mm
05:15 AM 46.0°F7.8°C 23.1°F-4.9°C 40% 8.1 mph E13.0 kmh E 12.1 mph19.5 kmh 30.34 in1027.4 mb 0.00 in0.0 mm 0.00 in0.0 mm 0.00 in0.0 mm
05:00 AM 46.2°F7.9°C 23.2°F-4.9°C 40% 7.6 mph SE12.2 kmh SE 11.4 mph18.3 kmh 30.34 in1027.4 mb 0.00 in0.0 mm 0.00 in0.0 mm 0.00 in0.0 mm
04:45 AM 46.2°F7.9°C 23.2°F-4.9°C 40% 8.6 mph E13.8 kmh E 11.4 mph18.3 kmh 30.34 in1027.4 mb 0.00 in0.0 mm 0.00 in0.0 mm 0.00 in0.0 mm
04:30 AM 46.4°F8.0°C 23.4°F-4.8°C 40% 10.1 mph E16.3 kmh E 13.6 mph21.9 kmh 30.34 in1027.4 mb 0.00 in0.0 mm 0.00 in0.0 mm 0.00 in0.0 mm
04:15 AM 46.6°F8.1°C 23.6°F-4.7°C 40% 9.2 mph E14.8 kmh E 15.2 mph24.5 kmh 30.34 in1027.4 mb 0.00 in0.0 mm 0.00 in0.0 mm 0.00 in0.0 mm
04:00 AM 46.8°F8.2°C 23.7°F-4.6°C 40% 10.8 mph E17.4 kmh E 13.6 mph21.9 kmh 30.34 in1027.4 mb 0.00 in0.0 mm 0.00 in0.0 mm 0.00 in0.0 mm
03:45 AM 46.9°F8.3°C 23.9°F-4.5°C 40% 10.1 mph ENE16.3 kmh ENE 19.7 mph31.7 kmh 30.34 in1027.4 mb 0.00 in0.0 mm 0.00 in0.0 mm 0.00 in0.0 mm
03:30 AM 46.9°F8.3°C 23.9°F-4.5°C 40% 9.9 mph ENE15.9 kmh ENE 15.2 mph24.5 kmh 30.33 in1027.1 mb 0.00 in0.0 mm 0.00 in0.0 mm 0.00 in0.0 mm
03:15 AM 47.1°F8.4°C 24.1°F-4.4°C 40% 9.4 mph E15.1 kmh E 15.2 mph24.5 kmh 30.32 in1026.8 mb 0.00 in0.0 mm 0.00 in0.0 mm 0.00 in0.0 mm
03:00 AM 47.3°F8.5°C 24.2°F-4.3°C 40% 9.0 mph E14.5 kmh E 12.1 mph19.5 kmh 30.33 in1027.1 mb 0.00 in0.0 mm 0.00 in0.0 mm 0.00 in0.0 mm
02:45 AM 47.5°F8.6°C 24.4°F-4.2°C 40% 11.7 mph E18.8 kmh E 17.4 mph28.0 kmh 30.33 in1027.1 mb 0.00 in0.0 mm 0.00 in0.0 mm 0.00 in0.0 mm
02:30 AM 47.5°F8.6°C 24.4°F-4.2°C 40% 10.7 mph ENE17.2 kmh ENE 15.2 mph24.5 kmh 30.33 in1027.1 mb 0.00 in0.0 mm 0.00 in0.0 mm 0.00 in0.0 mm
02:15 AM 47.3°F8.5°C 24.2°F-4.3°C 40% 9.2 mph E14.8 kmh E 13.0 mph20.9 kmh 30.33 in1027.1 mb 0.00 in0.0 mm 0.00 in0.0 mm 0.00 in0.0 mm
02:00 AM 47.5°F8.6°C 24.4°F-4.2°C 40% 8.6 mph E13.8 kmh E 13.0 mph20.9 kmh 30.33 in1027.1 mb 0.00 in0.0 mm 0.00 in0.0 mm 0.00 in0.0 mm
01:45 AM 47.5°F8.6°C 24.4°F-4.2°C 40% 9.1 mph ESE14.6 kmh ESE 14.5 mph23.3 kmh 30.34 in1027.4 mb 0.00 in0.0 mm 0.00 in0.0 mm 0.00 in0.0 mm
01:30 AM 47.7°F8.7°C 24.5°F-4.2°C 40% 8.3 mph E13.4 kmh E 12.1 mph19.5 kmh 30.34 in1027.4 mb 0.00 in0.0 mm 0.00 in0.0 mm 0.00 in0.0 mm
01:15 AM 47.7°F8.7°C 24.5°F-4.2°C 40% 8.7 mph E14.0 kmh E 13.0 mph20.9 kmh 30.34 in1027.4 mb 0.00 in0.0 mm 0.00 in0.0 mm 0.00 in0.0 mm
01:00 AM 48.0°F8.9°C 24.9°F-3.9°C 40% 7.6 mph ESE12.2 kmh ESE 12.1 mph19.5 kmh 30.34 in1027.4 mb 0.00 in0.0 mm 0.00 in0.0 mm 0.00 in0.0 mm
12:45 AM 48.4°F9.1°C 25.2°F-3.8°C 40% 9.5 mph ESE15.3 kmh ESE 13.0 mph20.9 kmh 30.34 in1027.4 mb 0.00 in0.0 mm 0.00 in0.0 mm 0.00 in0.0 mm
12:30 AM 47.8°F8.8°C 24.7°F-4.1°C 40% 8.8 mph ESE14.2 kmh ESE 13.0 mph20.9 kmh 30.34 in1027.4 mb 0.00 in0.0 mm 0.00 in0.0 mm 0.00 in0.0 mm
12:15 AM 48.0°F8.9°C 24.9°F-3.9°C 40% 9.6 mph ESE15.4 kmh ESE 12.1 mph19.5 kmh 30.33 in1027.1 mb 0.00 in0.0 mm 0.00 in0.0 mm 0.00 in0.0 mm
12:00 AM 48.2°F9.0°C 25.0°F-3.9°C 40% 8.0 mph ESE12.9 kmh ESE 16.8 mph27.0 kmh 30.33 in1027.1 mb 0.00 in0.0 mm 0.00 in0.0 mm 0.00 in0.0 mm